createdAt,value
2017-06-11T00:00:07.950Z,23.5
2017-06-11T00:02:04.640Z,23.5
2017-06-11T00:04:05.864Z,23.5
2017-06-11T00:06:05.103Z,23.5
2017-06-11T00:08:04.797Z,23.5
2017-06-11T00:10:08.191Z,23.4
2017-06-11T00:12:04.873Z,23.5
2017-06-11T00:14:05.101Z,23.4
2017-06-11T00:16:07.415Z,23.5
2017-06-11T00:18:04.920Z,23.5
2017-06-11T00:20:04.628Z,23.5
2017-06-11T00:22:07.589Z,23.4
2017-06-11T00:24:07.804Z,23.5
2017-06-11T00:26:10.508Z,23.5
2017-06-11T00:28:07.913Z,23.4
2017-06-11T00:30:05.588Z,23.4
2017-06-11T00:32:09.956Z,23.4
2017-06-11T00:34:05.212Z,23.5
2017-06-11T00:36:05.322Z,23.5
2017-06-11T00:38:05.087Z,23.5
2017-06-11T00:40:07.425Z,23.4
2017-06-11T00:42:05.178Z,23.4
2017-06-11T00:44:04.929Z,23.4
2017-06-11T00:46:05.265Z,23.4
2017-06-11T00:48:05.540Z,23.4
2017-06-11T00:50:05.297Z,23.4
2017-06-11T00:52:10.205Z,23.4
2017-06-11T00:54:17.571Z,23.4
2017-06-11T00:56:05.423Z,23.4
2017-06-11T00:58:05.545Z,23.4
2017-06-11T01:00:05.252Z,23.4
2017-06-11T01:02:04.949Z,23.4
2017-06-11T01:04:04.861Z,23.4
2017-06-11T01:06:04.778Z,23.4
2017-06-11T01:08:05.603Z,23.4
2017-06-11T01:10:05.649Z,23.4
2017-06-11T01:12:05.291Z,23.4
2017-06-11T01:14:04.953Z,23.4
2017-06-11T01:16:05.022Z,23.4
2017-06-11T01:18:04.973Z,23.4
2017-06-11T01:20:05.198Z,23.3
2017-06-11T01:22:07.741Z,23.4
2017-06-11T01:24:05.606Z,23.4
2017-06-11T01:26:04.851Z,23.4
2017-06-11T01:28:05.774Z,23.4
2017-06-11T01:30:05.583Z,23.4
2017-06-11T01:32:12.891Z,23.4
2017-06-11T01:34:04.733Z,23.4
2017-06-11T01:36:05.404Z,23.4
2017-06-11T01:38:07.688Z,23.3
2017-06-11T01:40:05.522Z,23.4
2017-06-11T01:42:09.866Z,23.4
2017-06-11T01:44:10.623Z,23.4
2017-06-11T01:46:04.993Z,23.4
2017-06-11T01:48:05.354Z,23.4
2017-06-11T01:50:05.036Z,23.4
2017-06-11T01:52:05.154Z,23.4
2017-06-11T01:54:04.937Z,23.4
2017-06-11T01:56:04.847Z,23.3
2017-06-11T01:58:05.924Z,23.3
2017-06-11T02:00:04.709Z,23.3
2017-06-11T02:02:05.451Z,23.3
2017-06-11T02:04:04.818Z,23.3
2017-06-11T02:06:10.550Z,23.3
2017-06-11T02:08:05.232Z,23.3
2017-06-11T02:10:05.098Z,23.3
2017-06-11T02:12:04.993Z,23.3
2017-06-11T02:14:05.499Z,23.3
2017-06-11T02:16:10.437Z,23.3
2017-06-11T02:18:04.941Z,23.3
2017-06-11T02:20:12.215Z,23.2
2017-06-11T02:22:08.167Z,23.3
2017-06-11T02:24:04.946Z,23.2
2017-06-11T02:26:04.631Z,23.3
2017-06-11T02:28:05.345Z,23.3
2017-06-11T02:30:05.222Z,23.2
2017-06-11T02:32:04.952Z,23.2
2017-06-11T02:34:05.208Z,23.2
2017-06-11T02:36:04.942Z,23.2
2017-06-11T02:38:04.704Z,23.2
2017-06-11T02:40:05.525Z,23.2
2017-06-11T02:42:07.858Z,23.2
2017-06-11T02:44:05.620Z,23.2
2017-06-11T02:46:05.294Z,23.2
2017-06-11T02:48:05.146Z,23.2
2017-06-11T02:50:04.977Z,23.1
2017-06-11T02:52:04.838Z,23.2
2017-06-11T02:54:05.035Z,23.2
2017-06-11T02:56:04.720Z,23.2
2017-06-11T02:58:08.237Z,23.1
2017-06-11T03:00:05.651Z,23.1
2017-06-11T03:02:05.340Z,23.1
2017-06-11T03:04:10.234Z,23.1
2017-06-11T03:06:07.447Z,23.1
2017-06-11T03:08:07.642Z,23.1
2017-06-11T03:10:07.879Z,23.1
2017-06-11T03:12:05.577Z,23.1
2017-06-11T03:14:05.275Z,23.1
2017-06-11T03:16:05.141Z,23.1
2017-06-11T03:18:07.554Z,23.1
2017-06-11T03:20:07.823Z,23.1
2017-06-11T03:22:05.779Z,23.1
2017-06-11T03:24:05.493Z,23.1
2017-06-11T03:26:05.216Z,23.1
2017-06-11T03:28:12.853Z,23.1
2017-06-11T03:30:05.523Z,23.1
2017-06-11T03:32:15.349Z,23
2017-06-11T03:34:12.704Z,23
2017-06-11T03:36:07.880Z,23.1
2017-06-11T03:38:05.611Z,23
2017-06-11T03:40:05.329Z,23.1
2017-06-11T03:42:05.025Z,23.1
2017-06-11T03:44:04.726Z,23.1
2017-06-11T03:46:05.126Z,23.1
2017-06-11T03:48:05.554Z,23.1
2017-06-11T03:50:05.339Z,23.1
2017-06-11T03:52:05.193Z,23.1
2017-06-11T03:54:05.070Z,23.1
2017-06-11T03:56:04.761Z,23.1
2017-06-11T03:58:05.332Z,23.1
2017-06-11T04:00:05.190Z,23.1
2017-06-11T04:02:09.914Z,23
2017-06-11T04:04:06.006Z,23.1
2017-06-11T04:06:05.357Z,23.1
2017-06-11T04:08:07.591Z,23.1
2017-06-11T04:10:05.703Z,23.1
2017-06-11T04:12:05.577Z,23.1
2017-06-11T04:14:05.285Z,23.1
2017-06-11T04:16:05.343Z,23.1
2017-06-11T04:18:05.400Z,23.1
2017-06-11T04:20:05.264Z,23.1
2017-06-11T04:22:05.206Z,23.1
2017-06-11T04:24:04.911Z,23.1
2017-06-11T04:26:05.564Z,23.1
2017-06-11T04:28:05.451Z,23.2
2017-06-11T04:30:05.135Z,23.2
2017-06-11T04:32:05.309Z,23.2
2017-06-11T04:34:05.191Z,23.2
2017-06-11T04:36:09.969Z,23.2
2017-06-11T04:38:04.709Z,23.2
2017-06-11T04:40:07.818Z,23.3
2017-06-11T04:42:08.643Z,23.3
2017-06-11T04:44:04.907Z,23.3
2017-06-11T04:46:05.705Z,23.3
2017-06-11T04:48:07.400Z,23.3
2017-06-11T04:50:05.107Z,23.3
2017-06-11T04:52:05.235Z,23.3
2017-06-11T04:54:05.541Z,23.3
2017-06-11T04:56:05.231Z,23.3
2017-06-11T04:58:05.058Z,23.3
2017-06-11T05:00:07.282Z,23.4
2017-06-11T05:02:05.469Z,23.4
2017-06-11T05:04:04.897Z,23.4
2017-06-11T05:06:04.663Z,23.4
2017-06-11T05:08:05.117Z,23.5
2017-06-11T05:10:04.880Z,23.5
2017-06-11T05:12:05.601Z,23.5
2017-06-11T05:14:05.289Z,23.5
2017-06-11T05:16:10.035Z,23.4
2017-06-11T05:18:04.884Z,23.5
2017-06-11T05:20:05.147Z,23.5
2017-06-11T05:22:04.953Z,23.4
2017-06-11T05:24:04.849Z,23.5
2017-06-11T05:26:05.587Z,23.5
2017-06-11T05:28:05.412Z,23.4
2017-06-11T05:30:05.178Z,23.4
2017-06-11T05:32:04.861Z,23.5
2017-06-11T05:34:05.635Z,23.5
2017-06-11T05:36:10.387Z,23.5
2017-06-11T05:38:04.694Z,23.5
2017-06-11T05:40:12.835Z,23.5
2017-06-11T05:42:05.647Z,23.5
2017-06-11T05:44:07.920Z,23.5
2017-06-11T05:46:05.773Z,23.5
2017-06-11T05:48:05.458Z,23.6
2017-06-11T05:50:05.171Z,23.6
2017-06-11T05:52:07.531Z,23.6
2017-06-11T05:54:05.207Z,23.6
2017-06-11T05:56:07.592Z,23.7
2017-06-11T05:58:05.325Z,23.7
2017-06-11T06:00:05.678Z,23.7
2017-06-11T06:02:05.453Z,23.7
2017-06-11T06:04:12.655Z,23.8
2017-06-11T06:06:05.394Z,23.8
2017-06-11T06:08:05.089Z,23.8
2017-06-11T06:10:07.564Z,23.8
2017-06-11T06:12:07.935Z,23.8
2017-06-11T06:14:10.658Z,23.9
2017-06-11T06:16:05.111Z,23.9
2017-06-11T06:18:05.073Z,23.9
2017-06-11T06:20:04.747Z,23.9
2017-06-11T06:22:05.622Z,23.9
2017-06-11T06:24:10.682Z,24
2017-06-11T06:26:07.845Z,24
2017-06-11T06:28:05.723Z,24
2017-06-11T06:30:05.420Z,24
2017-06-11T06:32:04.962Z,24.1
2017-06-11T06:34:04.716Z,24.1
2017-06-11T06:36:04.634Z,24.1
2017-06-11T06:38:06.392Z,24.2
2017-06-11T06:40:10.525Z,24.2
2017-06-11T06:42:07.830Z,24.2
2017-06-11T06:44:07.857Z,24.2
2017-06-11T06:46:05.087Z,24.2
2017-06-11T06:48:04.769Z,24.2
2017-06-11T06:50:05.442Z,24.2
2017-06-11T06:52:05.502Z,24.2
2017-06-11T06:54:05.405Z,24.3
2017-06-11T06:56:05.213Z,24.3
2017-06-11T06:58:05.126Z,24.3
2017-06-11T07:00:07.610Z,24.3
2017-06-11T07:02:05.317Z,24.3
2017-06-11T07:04:05.427Z,24.3
2017-06-11T07:06:07.639Z,24.3
2017-06-11T07:08:05.069Z,24.3
2017-06-11T07:10:07.342Z,24.4
2017-06-11T07:12:05.324Z,24.4
2017-06-11T07:14:07.978Z,24.4
2017-06-11T07:16:12.179Z,24.5
2017-06-11T07:18:06.279Z,24.4
2017-06-11T07:20:05.028Z,24.5
2017-06-11T07:22:10.083Z,24.5
2017-06-11T07:24:04.749Z,24.5
2017-06-11T07:26:05.426Z,24.5
2017-06-11T07:28:05.332Z,24.6
2017-06-11T07:30:05.013Z,24.6
2017-06-11T07:32:04.864Z,24.6
2017-06-11T07:34:07.346Z,24.7
2017-06-11T07:36:06.290Z,24.7
2017-06-11T07:38:05.055Z,24.7
2017-06-11T07:40:07.421Z,24.7
2017-06-11T07:42:05.097Z,24.7
2017-06-11T07:44:04.799Z,24.7
2017-06-11T07:46:05.833Z,24.8
2017-06-11T07:48:05.609Z,24.8
2017-06-11T07:50:17.980Z,24.9
2017-06-11T07:52:07.312Z,24.9
2017-06-11T07:54:05.022Z,24.9
2017-06-11T07:56:07.272Z,24.9
2017-06-11T07:58:05.041Z,24.9
2017-06-11T08:00:07.292Z,25
2017-06-11T08:02:04.958Z,25
2017-06-11T08:04:04.788Z,25
2017-06-11T08:06:05.499Z,25.1
2017-06-11T08:08:05.522Z,25.1
2017-06-11T08:10:10.702Z,25.1
2017-06-11T08:12:07.921Z,25.1
2017-06-11T08:14:07.201Z,25.2
2017-06-11T08:16:04.997Z,25.1
2017-06-11T08:18:05.079Z,25.2
2017-06-11T08:20:10.022Z,25.2
2017-06-11T08:22:08.168Z,25.3
2017-06-11T08:24:07.686Z,25.3
2017-06-11T08:26:05.347Z,25.3
2017-06-11T08:28:07.576Z,25.3
2017-06-11T08:30:05.307Z,25.3
2017-06-11T08:32:05.635Z,25.3
2017-06-11T08:34:10.004Z,25.3
2017-06-11T08:36:04.835Z,25.3
2017-06-11T08:38:10.668Z,25.4
2017-06-11T08:40:05.754Z,25.4
2017-06-11T08:42:05.519Z,25.4
2017-06-11T08:44:07.756Z,25.4
2017-06-11T08:46:04.874Z,25.4
2017-06-11T08:48:05.578Z,25.4
2017-06-11T08:50:05.301Z,25.4
2017-06-11T08:52:05.220Z,25.3
2017-06-11T08:54:13.050Z,25.3
2017-06-11T08:56:04.712Z,25.3
2017-06-11T08:58:05.658Z,25.3
2017-06-11T09:00:05.337Z,25.3
2017-06-11T09:02:07.655Z,25.3
2017-06-11T09:04:10.143Z,25.3
2017-06-11T09:06:04.902Z,25.3
2017-06-11T09:08:04.827Z,25.3
2017-06-11T09:10:05.585Z,25.3
2017-06-11T09:12:05.276Z,25.3
2017-06-11T09:14:04.948Z,25.3
2017-06-11T09:16:07.317Z,25.3
2017-06-11T09:18:05.323Z,25.3
2017-06-11T09:20:07.189Z,25.3
2017-06-11T09:22:04.998Z,25.3
2017-06-11T09:24:07.434Z,25.3
2017-06-11T09:26:12.737Z,25.3
2017-06-11T09:28:05.430Z,25.3
2017-06-11T09:30:04.643Z,25.3
2017-06-11T09:32:04.898Z,25.3
2017-06-11T09:34:07.738Z,25.3
2017-06-11T09:36:05.546Z,25.3
2017-06-11T09:38:17.906Z,25.3
2017-06-11T09:40:06.140Z,25.3
2017-06-11T09:42:12.754Z,25.3
2017-06-11T09:44:04.762Z,25.3
2017-06-11T09:46:10.099Z,25.3
2017-06-11T09:48:05.383Z,25.3
2017-06-11T09:50:05.295Z,25.3
2017-06-11T09:52:10.210Z,25.3
2017-06-11T09:54:07.446Z,25.4
2017-06-11T09:56:10.224Z,25.4
2017-06-11T09:58:05.074Z,25.4
2017-06-11T10:00:04.846Z,25.4
2017-06-11T10:02:08.122Z,25.4
2017-06-11T10:04:05.439Z,25.4
2017-06-11T10:06:05.161Z,25.4
2017-06-11T10:08:07.432Z,25.5
2017-06-11T10:10:07.390Z,25.5
2017-06-11T10:12:05.168Z,25.5
2017-06-11T10:14:04.818Z,25.5
2017-06-11T10:16:07.681Z,25.5
2017-06-11T10:18:08.126Z,25.5
2017-06-11T10:20:12.410Z,25.5
2017-06-11T10:22:05.482Z,25.5
2017-06-11T10:24:05.295Z,25.5
2017-06-11T10:26:07.489Z,25.6
2017-06-11T10:28:08.100Z,25.5
2017-06-11T10:30:07.774Z,25.6
2017-06-11T10:32:13.049Z,25.5
2017-06-11T10:34:04.810Z,25.5
2017-06-11T10:36:08.074Z,25.6
2017-06-11T10:38:07.364Z,25.6
2017-06-11T10:40:05.273Z,25.6
2017-06-11T10:42:05.019Z,25.6
2017-06-11T10:44:04.682Z,25.6
2017-06-11T10:46:10.597Z,25.6
2017-06-11T10:48:07.880Z,25.6
2017-06-11T10:50:05.658Z,25.6
2017-06-11T10:52:05.541Z,25.7
2017-06-11T10:54:06.224Z,25.7
2017-06-11T10:56:04.968Z,25.6
2017-06-11T10:58:05.036Z,25.6
2017-06-11T11:00:05.879Z,25.6
2017-06-11T11:02:05.224Z,25.6
2017-06-11T11:04:07.851Z,25.7
2017-06-11T11:06:07.933Z,25.7
2017-06-11T11:08:12.288Z,25.7
2017-06-11T11:10:05.125Z,25.7
2017-06-11T11:12:04.799Z,25.7
2017-06-11T11:14:05.113Z,25.7
2017-06-11T11:16:07.478Z,25.7
2017-06-11T11:18:05.526Z,25.7
2017-06-11T11:20:04.925Z,25.7
2017-06-11T11:22:04.882Z,25.7
2017-06-11T11:24:05.616Z,25.7
2017-06-11T11:26:10.578Z,25.8
2017-06-11T11:28:05.295Z,25.8
2017-06-11T11:30:04.960Z,25.8
2017-06-11T11:32:05.593Z,25.8
2017-06-11T11:34:05.705Z,25.8
2017-06-11T11:36:04.661Z,25.8
2017-06-11T11:38:05.375Z,25.8
2017-06-11T11:40:10.689Z,25.8
2017-06-11T11:42:05.454Z,25.8
2017-06-11T11:44:05.339Z,25.8
2017-06-11T11:46:05.296Z,25.8
2017-06-11T11:48:05.324Z,25.8
2017-06-11T11:50:07.528Z,25.7
2017-06-11T11:52:04.914Z,25.7
2017-06-11T11:54:04.709Z,25.7
2017-06-11T11:56:07.464Z,25.7
2017-06-11T11:58:05.527Z,25.7
2017-06-11T12:00:05.236Z,25.7
2017-06-11T12:02:05.446Z,25.8
2017-06-11T12:04:08.347Z,25.8
2017-06-11T12:06:04.596Z,25.8
2017-06-11T12:08:05.285Z,25.8
2017-06-11T12:10:05.532Z,25.8
2017-06-11T12:12:05.272Z,25.8
2017-06-11T12:14:07.588Z,25.8
2017-06-11T12:16:05.458Z,25.8
2017-06-11T12:18:05.378Z,25.8
2017-06-11T12:20:05.209Z,25.8
2017-06-11T12:22:12.661Z,25.8
2017-06-11T12:24:05.373Z,25.8
2017-06-11T12:26:08.160Z,25.9
2017-06-11T12:28:07.592Z,25.9
2017-06-11T12:30:05.573Z,25.9
2017-06-11T12:32:05.942Z,25.9
2017-06-11T12:34:05.258Z,25.9
2017-06-11T12:36:07.847Z,25.9
2017-06-11T12:38:05.605Z,25.9
2017-06-11T12:40:05.383Z,25.9
2017-06-11T12:42:05.122Z,25.9
2017-06-11T12:44:09.860Z,25.9
2017-06-11T12:46:05.786Z,25.9
2017-06-11T12:48:05.032Z,25.9
2017-06-11T12:50:04.752Z,25.9
2017-06-11T12:52:05.621Z,25.9
2017-06-11T12:54:07.402Z,25.9
2017-06-11T12:56:05.079Z,26
2017-06-11T12:58:10.713Z,25.9
2017-06-11T13:00:04.939Z,25.9
2017-06-11T13:02:04.615Z,25.9
2017-06-11T13:04:05.461Z,26
2017-06-11T13:06:05.118Z,26
2017-06-11T13:08:05.203Z,26
2017-06-11T13:10:05.040Z,26
2017-06-11T13:12:05.292Z,26
2017-06-11T13:14:05.152Z,26
2017-06-11T13:16:07.504Z,26
2017-06-11T13:18:05.468Z,26
2017-06-11T13:20:05.165Z,26
2017-06-11T13:22:05.025Z,26
2017-06-11T13:24:07.462Z,26
2017-06-11T13:26:05.137Z,26
2017-06-11T13:28:07.489Z,26
2017-06-11T13:30:05.173Z,26
2017-06-11T13:32:05.371Z,26
2017-06-11T13:34:05.761Z,26.1
2017-06-11T13:36:05.529Z,26.1
2017-06-11T13:38:05.211Z,26.1
2017-06-11T13:40:05.598Z,26.1
2017-06-11T13:42:05.295Z,26.1
2017-06-11T13:44:05.177Z,26.1
2017-06-11T13:46:04.933Z,26.1
2017-06-11T13:48:04.919Z,26.1
2017-06-11T13:50:04.699Z,26.1
2017-06-11T13:52:05.573Z,26.1
2017-06-11T13:54:04.873Z,26.1
2017-06-11T13:56:05.485Z,26.1
2017-06-11T13:58:05.688Z,26.1
2017-06-11T14:00:07.505Z,26.1
2017-06-11T14:02:07.795Z,26.1
2017-06-11T14:04:04.768Z,26.1
2017-06-11T14:06:12.192Z,26.1
2017-06-11T14:08:04.962Z,26.1
2017-06-11T14:10:05.041Z,26.1
2017-06-11T14:12:04.955Z,26.1
2017-06-11T14:14:04.830Z,26.1
2017-06-11T14:16:05.642Z,26.1
2017-06-11T14:18:08.094Z,26.1
2017-06-11T14:20:04.841Z,26.1
2017-06-11T14:22:05.893Z,26.1
2017-06-11T14:24:05.125Z,26.1
2017-06-11T14:26:05.323Z,26.1
2017-06-11T14:28:08.404Z,26.1
2017-06-11T14:30:05.097Z,26.1
2017-06-11T14:32:04.825Z,26.1
2017-06-11T14:34:05.603Z,26.1
2017-06-11T14:36:05.309Z,26.1
2017-06-11T14:38:05.087Z,26.1
2017-06-11T14:40:04.950Z,26.1
2017-06-11T14:42:04.695Z,26.1
2017-06-11T14:44:08.111Z,26.2
2017-06-11T14:46:04.961Z,26.2
2017-06-11T14:48:04.630Z,26.2
2017-06-11T14:50:05.132Z,26.2
2017-06-11T14:52:04.933Z,26.2
2017-06-11T14:54:04.626Z,26.2
2017-06-11T14:56:05.331Z,26.2
2017-06-11T14:58:05.082Z,26.2
2017-06-11T15:00:05.372Z,26.2
2017-06-11T15:02:07.633Z,26.2
2017-06-11T15:04:05.013Z,26.2
2017-06-11T15:06:05.228Z,26.2
2017-06-11T15:08:04.952Z,26.2
2017-06-11T15:10:05.212Z,26.2
2017-06-11T15:12:04.955Z,26.2
2017-06-11T15:14:04.653Z,26.2
2017-06-11T15:16:05.477Z,26.2
2017-06-11T15:18:10.423Z,26.2
2017-06-11T15:20:05.160Z,26.2
2017-06-11T15:22:07.476Z,26.2
2017-06-11T15:24:05.144Z,26.2
2017-06-11T15:26:04.922Z,26.3
2017-06-11T15:28:07.390Z,26.3
2017-06-11T15:30:05.059Z,26.3
2017-06-11T15:32:07.940Z,26.3
2017-06-11T15:34:07.242Z,26.3
2017-06-11T15:36:10.549Z,26.3
2017-06-11T15:38:10.392Z,26.3
2017-06-11T15:40:07.782Z,26.3
2017-06-11T15:42:05.570Z,26.3
2017-06-11T15:44:04.713Z,26.3
2017-06-11T15:46:05.707Z,26.3
2017-06-11T15:48:05.570Z,26.3
2017-06-11T15:50:05.328Z,26.3
2017-06-11T15:52:05.045Z,26.4
2017-06-11T15:54:07.816Z,26.3
2017-06-11T15:56:05.665Z,26.3
2017-06-11T15:58:05.733Z,26.4
2017-06-11T16:00:05.601Z,26.4
2017-06-11T16:02:05.332Z,26.3
2017-06-11T16:04:08.146Z,26.4
2017-06-11T16:06:05.335Z,26.4
2017-06-11T16:08:04.960Z,26.4
2017-06-11T16:10:04.987Z,26.4
2017-06-11T16:12:04.701Z,26.4
2017-06-11T16:14:10.548Z,26.4
2017-06-11T16:16:05.684Z,26.4
2017-06-11T16:18:04.770Z,26.4
2017-06-11T16:20:05.674Z,26.3
2017-06-11T16:22:05.418Z,26.3
2017-06-11T16:24:04.676Z,26.3
2017-06-11T16:26:05.354Z,26.3
2017-06-11T16:28:05.204Z,26.3
2017-06-11T16:30:04.908Z,26.3
2017-06-11T16:32:05.665Z,26.3
2017-06-11T16:34:05.741Z,26.2
2017-06-11T16:36:05.465Z,26.3
2017-06-11T16:38:04.746Z,26.2
2017-06-11T16:40:08.339Z,26.3
2017-06-11T16:42:05.048Z,26.2
2017-06-11T16:44:07.315Z,26.3
2017-06-11T16:46:10.584Z,26.3
2017-06-11T16:48:05.379Z,26.3
2017-06-11T16:50:05.077Z,26.3
2017-06-11T16:52:04.907Z,26.3
2017-06-11T16:54:05.616Z,26.3
2017-06-11T16:56:07.833Z,26.3
2017-06-11T16:58:05.948Z,26.3
2017-06-11T17:00:04.650Z,26.3
2017-06-11T17:02:07.879Z,26.3
2017-06-11T17:04:05.913Z,26.3
2017-06-11T17:06:05.585Z,26.3
2017-06-11T17:08:10.485Z,26.3
2017-06-11T17:10:12.825Z,26.2
2017-06-11T17:12:05.496Z,26.2
2017-06-11T17:14:05.192Z,26.2
2017-06-11T17:16:04.962Z,26.2
2017-06-11T17:18:05.023Z,26.2
2017-06-11T17:20:07.228Z,26.2
2017-06-11T17:22:05.274Z,26.2
2017-06-11T17:24:05.194Z,26.3
2017-06-11T17:26:04.956Z,26.3
2017-06-11T17:28:05.031Z,26.3
2017-06-11T17:30:04.819Z,26.4
2017-06-11T17:32:05.542Z,26.4
2017-06-11T17:34:05.679Z,26.4
2017-06-11T17:36:05.493Z,26.4
2017-06-11T17:38:07.747Z,26.3
2017-06-11T17:40:05.605Z,26.3
2017-06-11T17:42:05.367Z,26.3
2017-06-11T17:44:07.654Z,26.3
2017-06-11T17:46:08.294Z,26.2
2017-06-11T17:48:05.178Z,26.3
2017-06-11T17:50:10.016Z,26.2
2017-06-11T17:52:05.116Z,26.2
2017-06-11T17:54:04.865Z,26.2
2017-06-11T17:56:04.988Z,26.2
2017-06-11T17:58:09.951Z,26.1
2017-06-11T18:00:07.168Z,26.1
2017-06-11T18:02:05.955Z,26.1
2017-06-11T18:04:04.961Z,26.1
2017-06-11T18:06:04.778Z,26.1
2017-06-11T18:08:05.110Z,26.1
2017-06-11T18:10:04.991Z,26.1
2017-06-11T18:12:04.972Z,26.1
2017-06-11T18:14:09.818Z,26.1
2017-06-11T18:16:08.237Z,26.1
2017-06-11T18:18:05.225Z,26.1
2017-06-11T18:20:07.473Z,26.1
2017-06-11T18:22:04.876Z,26
2017-06-11T18:24:05.555Z,26
2017-06-11T18:26:05.336Z,26
2017-06-11T18:28:05.301Z,26
2017-06-11T18:30:05.028Z,26
2017-06-11T18:32:05.554Z,26.1
2017-06-11T18:34:07.874Z,26.1
2017-06-11T18:36:05.200Z,26.1
2017-06-11T18:38:05.111Z,26.1
2017-06-11T18:40:05.705Z,26.1
2017-06-11T18:42:05.618Z,26.1
2017-06-11T18:44:10.082Z,26.1
2017-06-11T18:46:04.863Z,26.1
2017-06-11T18:48:05.600Z,26.1
2017-06-11T18:50:05.348Z,26.1
2017-06-11T18:52:05.243Z,26.1
2017-06-11T18:54:10.543Z,26.1
2017-06-11T18:56:05.394Z,26.1
2017-06-11T18:58:09.815Z,26
2017-06-11T19:00:05.716Z,26.1
2017-06-11T19:02:05.454Z,26.1
2017-06-11T19:04:05.345Z,26.1
2017-06-11T19:06:10.205Z,26
2017-06-11T19:08:06.014Z,26
2017-06-11T19:10:05.626Z,26
2017-06-11T19:12:05.469Z,26
2017-06-11T19:14:05.495Z,26
2017-06-11T19:16:05.379Z,26
2017-06-11T19:18:07.854Z,26
2017-06-11T19:20:10.604Z,26
2017-06-11T19:22:05.358Z,26
2017-06-11T19:24:05.128Z,26
2017-06-11T19:26:04.936Z,26
2017-06-11T19:28:04.887Z,26
2017-06-11T19:30:04.722Z,26
2017-06-11T19:32:05.667Z,26
2017-06-11T19:34:05.524Z,26
2017-06-11T19:36:05.290Z,25.9
2017-06-11T19:38:05.130Z,25.9
2017-06-11T19:40:05.607Z,26
2017-06-11T19:42:05.380Z,26
2017-06-11T19:44:07.774Z,26
2017-06-11T19:46:05.492Z,26
2017-06-11T19:48:10.331Z,25.9
2017-06-11T19:50:05.081Z,26
2017-06-11T19:52:04.874Z,26
2017-06-11T19:54:04.632Z,25.9
2017-06-11T19:56:05.494Z,26
2017-06-11T19:58:05.436Z,25.9
2017-06-11T20:00:05.143Z,26
2017-06-11T20:02:05.435Z,26
2017-06-11T20:04:07.861Z,25.9
2017-06-11T20:06:14.874Z,25.9
2017-06-11T20:08:05.564Z,25.9
2017-06-11T20:10:05.639Z,25.9
2017-06-11T20:12:05.504Z,25.9
2017-06-11T20:14:05.573Z,25.9
2017-06-11T20:16:09.805Z,25.9
2017-06-11T20:18:05.338Z,25.9
2017-06-11T20:20:07.883Z,25.9
2017-06-11T20:22:05.695Z,25.9
2017-06-11T20:24:06.111Z,25.9
2017-06-11T20:26:04.848Z,25.9
2017-06-11T20:28:04.912Z,25.9
2017-06-11T20:30:05.593Z,25.9
2017-06-11T20:32:05.398Z,25.9
2017-06-11T20:34:09.027Z,25.9
2017-06-11T20:36:05.345Z,25.9
2017-06-11T20:38:06.507Z,25.9
2017-06-11T20:40:25.785Z,25.8
2017-06-11T20:42:05.060Z,25.8
2017-06-11T20:44:05.037Z,25.9
2017-06-11T20:46:10.143Z,25.9
2017-06-11T20:48:05.124Z,25.8
2017-06-11T20:50:05.418Z,25.8
2017-06-11T20:52:05.559Z,25.8
2017-06-11T20:54:04.657Z,25.8
2017-06-11T20:56:05.043Z,25.8
2017-06-11T20:58:06.799Z,25.8
2017-06-11T21:00:06.199Z,25.8
2017-06-11T21:02:05.129Z,25.8
2017-06-11T21:04:15.647Z,25.8
2017-06-11T21:06:04.699Z,25.8
2017-06-11T21:08:05.156Z,25.8
2017-06-11T21:10:17.653Z,25.8
2017-06-11T21:12:05.318Z,25.8
2017-06-11T21:14:05.494Z,25.8
2017-06-11T21:16:05.222Z,25.8
2017-06-11T21:18:06.750Z,25.8
2017-06-11T21:20:05.684Z,25.8
2017-06-11T21:22:10.002Z,25.7
2017-06-11T21:24:05.199Z,25.7
2017-06-11T21:26:04.914Z,25.7
2017-06-11T21:28:05.016Z,25.7
2017-06-11T21:30:10.300Z,25.7
2017-06-11T21:32:05.196Z,25.7
2017-06-11T21:34:05.055Z,25.7
2017-06-11T21:36:07.360Z,25.7
2017-06-11T21:38:05.054Z,25.7
2017-06-11T21:40:04.926Z,25.7
2017-06-11T21:42:04.633Z,25.7
2017-06-11T21:44:07.841Z,25.7
2017-06-11T21:46:05.076Z,25.7
2017-06-11T21:48:04.844Z,25.7
2017-06-11T21:50:05.590Z,25.6
2017-06-11T21:52:05.025Z,25.6
2017-06-11T21:54:04.707Z,25.6
2017-06-11T21:56:10.569Z,25.6
2017-06-11T21:58:05.383Z,25.6
2017-06-11T22:00:04.615Z,25.6
2017-06-11T22:02:05.327Z,25.6
2017-06-11T22:04:10.516Z,25.6
2017-06-11T22:06:05.218Z,25.6
2017-06-11T22:08:05.450Z,25.6
2017-06-11T22:10:05.195Z,25.5
2017-06-11T22:12:04.999Z,25.5
2017-06-11T22:14:04.748Z,25.5
2017-06-11T22:16:04.750Z,25.5
2017-06-11T22:18:05.171Z,25.5
2017-06-11T22:20:04.902Z,25.5
2017-06-11T22:22:05.963Z,25.5
2017-06-11T22:24:04.709Z,25.5
2017-06-11T22:26:05.433Z,25.5
2017-06-11T22:28:10.652Z,25.5
2017-06-11T22:30:05.414Z,25.5
2017-06-11T22:32:05.088Z,25.5
2017-06-11T22:34:04.939Z,25.5
2017-06-11T22:36:04.668Z,25.5
2017-06-11T22:38:05.337Z,25.5
2017-06-11T22:40:05.167Z,25.5
2017-06-11T22:42:05.092Z,25.5
2017-06-11T22:44:04.859Z,25.5
2017-06-11T22:46:05.249Z,25.5
2017-06-11T22:48:07.469Z,25.5
2017-06-11T22:50:05.151Z,25.5
2017-06-11T22:52:04.955Z,25.5
2017-06-11T22:54:04.733Z,25.5
2017-06-11T22:56:04.997Z,25.4
2017-06-11T22:58:05.237Z,25.4
2017-06-11T23:00:05.073Z,25.4
2017-06-11T23:02:05.345Z,25.4
2017-06-11T23:04:12.730Z,25.4
2017-06-11T23:06:07.959Z,25.4
2017-06-11T23:08:05.150Z,25.4
2017-06-11T23:10:05.188Z,25.4
2017-06-11T23:12:04.931Z,25.4
2017-06-11T23:14:04.738Z,25.4
2017-06-11T23:16:08.430Z,25.3
2017-06-11T23:18:07.852Z,25.3
2017-06-11T23:20:05.689Z,25.3
2017-06-11T23:22:08.064Z,25.3
2017-06-11T23:24:04.746Z,25.3
2017-06-11T23:26:05.517Z,25.3
2017-06-11T23:28:07.798Z,25.3
2017-06-11T23:30:05.521Z,25.3
2017-06-11T23:32:05.409Z,25.3
2017-06-11T23:34:07.769Z,25.3
2017-06-11T23:36:08.070Z,25.3
2017-06-11T23:38:07.298Z,25.2
2017-06-11T23:40:05.120Z,25.2
2017-06-11T23:42:04.827Z,25.2
2017-06-11T23:44:05.508Z,25.3
2017-06-11T23:46:07.993Z,25.3
2017-06-11T23:48:04.856Z,25.2
2017-06-11T23:50:05.519Z,25.2
2017-06-11T23:52:05.317Z,25.2
2017-06-11T23:54:07.635Z,25.2
2017-06-11T23:56:07.901Z,25.2
2017-06-11T23:58:04.740Z,25.2
